^^
Station Historical Data
 
Daily Summary for February 24, 2019 Units:  Metric    English   Both
« Previous Day
Next Day »
Daily Weekly Monthly Yearly Custom
  Current: High: Low: Average:
Temperature: -14.6 °C -17.8 °C -14.6 °C -14.3 °C
Dew Point: -17.2 °C -17.8 °C -17.2 °C -17.1 °C
Humidity: 72% Humidity% 67% 67%
Wind Speed: 0km/h 0km/h 0km/h 6.1km/h
Wind Gust: 0km/h 0km/h - -
WindCalm - - SSE
Pressure: 35051.9 hPa 0 hPa 35041.7 hPa -
Precipitation: 0 mm      
Historical Graphs
 
 
Tabular Data for February 24, 2019
Time Temperature Dew Point Pressure Wind Wind Speed Wind Gust Humidity Rainfall Rate (Hourly) solar Conditions
-17.8 °C -17.8 °C 0 hPa Calm     Humidity% 0 mm SolarRadiationWatts/m^2 W/m2 Conditions
00:04 -13.7 °C -16.8 °C 35058.6 hPa SSE 6 km/h 1.8 km/h 67% 0 mm 0.00 W/m2 CLR
00:07 -13.7 °C -16.9 °C 35058.6 hPa SE 9 km/h 1 km/h 67% 0 mm 0.00 W/m2 CLR
00:14 -13.8 °C -16.9 °C 35058.6 hPa Calm     67% 0 mm 0.00 W/m2 CLR
00:19 -13.8 °C -17 °C 35055.3 hPa SE 6 km/h 2.9 km/h 67% 0 mm 0.00 W/m2 CLR
00:24 -13.8 °C -17 °C 35055.3 hPa SE 9 km/h 0.8 km/h 67% 0 mm 0.00 W/m2 CLR
00:28 -13.8 °C -16.9 °C 35058.6 hPa SE 5.5 km/h 1 km/h 68% 0 mm 0.00 W/m2 CLR
00:34 -13.9 °C -17.1 °C 35055.3 hPa SSE 15 km/h 5.5 km/h 67% 0 mm 0.00 W/m2 CLR
00:39 -13.9 °C -17.1 °C 35058.6 hPa Calm     67% 0 mm 0.00 W/m2 CLR
00:44 -13.9 °C -17 °C 35055.3 hPa Calm     68% 0 mm 0.00 W/m2 CLR
00:49 -13.9 °C -17 °C 35055.3 hPa Calm     68% 0 mm 0.00 W/m2 CLR
00:53 -14 °C -16.9 °C 35055.3 hPa Calm     69% 0 mm 0.00 W/m2 CLR
00:59 -14 °C -16.9 °C 35055.3 hPa SSE 2.6 km/h   69% 0 mm 0.00 W/m2 CLR
01:03 -14 °C -16.9 °C 35051.9 hPa SSE 6 km/h 0.5 km/h 69% 0 mm 0.00 W/m2 CLR
01:09 -14.1 °C -17 °C 35045.1 hPa SSE 8 km/h 3.4 km/h 69% 0 mm 0.00 W/m2 CLR
01:13 -14.1 °C -17.1 °C 35045.1 hPa SE 11.9 km/h 6.3 km/h 69% 0 mm 0.00 W/m2 CLR
01:18 -14.1 °C -17.1 °C 35045.1 hPa SE 9 km/h 3.4 km/h 69% 0 mm 0.00 W/m2 CLR
01:23 -14.2 °C -17 °C 35045.1 hPa SE 9 km/h 4.3 km/h 70% 0 mm 0.00 W/m2 CLR
01:28 -14.2 °C -17.1 °C 35041.7 hPa SSE 6 km/h 1.6 km/h 70% 0 mm 0.00 W/m2 CLR
01:33 -14.3 °C -17.1 °C 35041.7 hPa SE 11.9 km/h 4.3 km/h 70% 0 mm 0.00 W/m2 CLR
01:38 -14.3 °C -17.1 °C 35041.7 hPa SE 9 km/h 3.4 km/h 70% 0 mm 0.00 W/m2 CLR
01:44 -14.3 °C -17.1 °C 35041.7 hPa SE 11.9 km/h 7.2 km/h 71% 0 mm 0.00 W/m2 CLR
01:48 -14.4 °C -17.1 °C 35041.7 hPa SSE 6 km/h 3.1 km/h 71% 0 mm 0.00 W/m2 CLR
01:54 -14.4 °C -17.2 °C 35041.7 hPa SE 6 km/h 1.8 km/h 71% 0 mm 0.00 W/m2 CLR
01:58 -14.5 °C -17.1 °C 35041.7 hPa SSE 13.5 km/h 7.2 km/h 72% 0 mm 0.00 W/m2 CLR
02:03 -14.5 °C -17.1 °C 35041.7 hPa SSE 16.1 km/h 8.2 km/h 72% 0 mm 0.00 W/m2 CLR
02:08 -14.5 °C -17.1 °C 35041.7 hPa SSE 6 km/h 1.8 km/h 72% 0 mm 0.00 W/m2 CLR
02:13 -14.5 °C -17.1 °C 35045.1 hPa SSE 6 km/h 1.8 km/h 72% 0 mm 0.00 W/m2 CLR
02:18 -14.5 °C -17.1 °C 35048.5 hPa Calm     72% 0 mm 0.00 W/m2 CLR
02:24 -14.6 °C -17.2 °C 35051.9 hPa Calm     72% 0 mm 0.00 W/m2 CLR
02:28 -14.6 °C -17.2 °C 35051.9 hPa Calm     72% 0 mm 0.00 W/m2 CLR
Juneau County Weather
Compliments of Weather Underground - 1.75 mb